createdAt,value
2018-09-01T11:05:53.709Z,23.80
2018-09-01T11:08:22.143Z,23.40
2018-09-01T11:10:50.635Z,23.00
2018-09-01T11:13:19.094Z,22.60
2018-09-01T11:15:47.558Z,22.70
2018-09-01T11:18:16.010Z,22.60
2018-09-01T11:20:44.549Z,22.70
2018-09-01T11:23:12.974Z,22.70
2018-09-01T11:25:41.445Z,23.10
2018-09-01T11:28:09.945Z,23.60
2018-09-01T11:30:38.342Z,23.90
2018-09-01T11:33:06.851Z,24.00
2018-09-01T11:35:35.366Z,24.10
2018-09-01T11:38:03.836Z,24.60
2018-09-01T11:40:32.266Z,24.80
2018-09-01T11:43:00.781Z,24.60
2018-09-01T11:45:29.159Z,24.90
2018-09-01T11:47:57.589Z,24.30
2018-09-01T11:50:26.387Z,24.50
2018-09-01T11:52:54.818Z,24.80
2018-09-01T11:55:23.295Z,24.90
2018-09-01T11:57:51.719Z,25.10
2018-09-01T12:00:20.174Z,25.70
2018-09-01T12:02:48.615Z,25.00
2018-09-01T12:05:17.317Z,24.40
2018-09-01T12:07:45.782Z,23.90
2018-09-01T12:10:14.223Z,23.60
2018-09-01T12:12:42.654Z,23.10
2018-09-01T12:15:12.732Z,23.10
2018-09-01T12:17:41.211Z,23.20
2018-09-01T12:20:09.686Z,23.80
2018-09-01T12:22:38.192Z,24.50
2018-09-01T12:25:06.704Z,24.50
2018-09-01T12:27:35.170Z,24.00
2018-09-01T12:30:03.677Z,23.60
2018-09-01T12:32:32.110Z,23.60
2018-09-01T12:35:00.898Z,23.50
2018-09-01T12:37:29.384Z,23.90
2018-09-01T12:39:57.934Z,23.80
2018-09-01T12:42:26.410Z,24.40
2018-09-01T12:44:54.957Z,24.80
2018-09-01T12:47:23.392Z,24.60
2018-09-01T12:49:51.883Z,24.60
2018-09-01T12:52:20.357Z,24.80
2018-09-01T12:54:48.844Z,24.60
2018-09-01T12:57:17.356Z,23.90
2018-09-01T12:59:45.928Z,23.40
2018-09-01T13:02:19.666Z,23.60
2018-09-01T13:04:48.320Z,23.90
2018-09-01T13:07:16.890Z,24.40
2018-09-01T13:09:45.346Z,24.80
2018-09-01T13:12:14.164Z,25.10
2018-09-01T13:14:43.055Z,24.90
2018-09-01T13:17:12.335Z,24.60
2018-09-01T13:19:41.227Z,23.90
2018-09-01T13:22:09.887Z,23.90
2018-09-01T13:24:38.352Z,23.80
2018-09-01T13:27:08.007Z,24.20
2018-09-01T13:29:36.422Z,24.20
2018-09-01T13:32:04.950Z,24.50
2018-09-01T13:34:33.423Z,24.80
2018-09-01T13:37:03.466Z,25.00
2018-09-01T13:39:32.016Z,24.80
2018-09-01T13:42:00.487Z,24.00
2018-09-01T13:44:28.976Z,23.80
2018-09-01T13:46:57.419Z,23.70
2018-09-01T13:49:26.098Z,23.50
2018-09-01T13:51:54.859Z,23.70
2018-09-01T13:54:23.322Z,24.20
2018-09-01T13:56:51.772Z,24.40
2018-09-01T13:59:20.255Z,24.60
2018-09-01T14:01:48.771Z,24.40
2018-09-01T14:04:17.204Z,24.80
2018-09-01T14:06:45.666Z,25.10
2018-09-01T14:09:14.093Z,25.20
2018-09-01T14:11:42.574Z,25.20
2018-09-01T14:14:11.072Z,25.30
2018-09-01T14:16:39.591Z,25.40
2018-09-01T14:19:08.023Z,25.50
2018-09-01T14:21:37.200Z,25.80
2018-09-01T14:25:42.605Z,26.00
2018-09-01T14:28:11.091Z,25.80
2018-09-01T14:30:39.567Z,25.30
2018-09-01T14:33:08.138Z,25.20
2018-09-01T14:35:36.580Z,24.60
2018-09-01T14:38:05.199Z,24.50
2018-09-01T14:40:33.866Z,24.30
2018-09-01T14:43:02.376Z,24.00
2018-09-01T14:45:30.875Z,23.90
2018-09-01T14:48:01.506Z,24.20
2018-09-01T14:50:30.035Z,24.80
2018-09-01T14:52:58.531Z,25.00
2018-09-01T14:55:26.983Z,25.20
2018-09-01T14:57:55.450Z,25.20
2018-09-01T15:01:26.156Z,25.00
2018-09-01T15:03:54.644Z,24.80
2018-09-01T15:06:23.371Z,25.10
2018-09-01T15:08:51.832Z,25.30
2018-09-01T15:11:20.303Z,25.20
2018-09-01T15:13:48.755Z,25.10
2018-09-01T15:16:17.187Z,24.70
2018-09-01T15:18:45.805Z,24.50
2018-09-01T15:21:14.238Z,24.40
2018-09-01T15:23:42.751Z,24.40
2018-09-01T15:26:11.257Z,24.30
2018-09-01T15:28:39.827Z,23.90
2018-09-01T15:31:08.227Z,23.80
2018-09-01T15:33:36.734Z,23.90
2018-09-01T15:36:05.208Z,23.90
2018-09-01T15:38:33.725Z,23.70
2018-09-01T15:41:02.186Z,24.00
2018-09-01T15:43:30.627Z,24.10
2018-09-01T15:45:59.079Z,23.90
2018-09-01T15:48:27.816Z,24.00
2018-09-01T15:50:56.347Z,24.20
2018-09-01T15:53:24.814Z,24.00
2018-09-01T15:55:53.564Z,24.00
2018-09-01T15:58:22.036Z,23.70
2018-09-01T16:00:50.845Z,23.50
2018-09-01T16:03:19.345Z,23.40
2018-09-01T16:05:47.791Z,23.60
2018-09-01T16:08:16.304Z,23.40
2018-09-01T16:10:44.827Z,23.30
2018-09-01T16:13:13.422Z,23.30
2018-09-01T16:15:41.938Z,23.20
2018-09-01T16:18:10.485Z,23.00
2018-09-01T16:20:38.939Z,22.90
2018-09-01T16:23:07.463Z,22.90
2018-09-01T16:25:35.945Z,22.60
2018-09-01T16:28:04.497Z,22.60
2018-09-01T16:30:32.969Z,22.70
2018-09-01T16:33:01.447Z,22.60
2018-09-01T16:35:29.892Z,22.50
2018-09-01T16:37:58.374Z,22.50
2018-09-01T16:40:26.851Z,22.50
2018-09-01T16:42:55.334Z,22.40
2018-09-01T16:45:23.783Z,22.30
2018-09-01T16:47:52.244Z,22.30
2018-09-01T16:50:20.714Z,22.30
2018-09-01T16:52:49.172Z,22.30
2018-09-01T16:55:17.603Z,22.30
2018-09-01T16:57:46.063Z,22.10
2018-09-01T17:00:14.520Z,22.00
2018-09-01T17:02:43.008Z,21.90
2018-09-01T17:05:11.462Z,21.70
2018-09-01T17:07:40.242Z,21.80
2018-09-01T17:10:08.747Z,21.90
2018-09-01T17:12:37.235Z,21.80
2018-09-01T17:15:06.006Z,21.80
2018-09-01T17:17:34.515Z,21.80
2018-09-01T17:20:02.991Z,21.80
2018-09-01T17:22:31.461Z,21.70
2018-09-01T17:24:59.916Z,21.60
2018-09-01T17:27:28.379Z,21.50
2018-09-01T17:29:56.832Z,21.50
2018-09-01T17:32:25.297Z,21.40
2018-09-01T17:34:53.738Z,21.20
2018-09-01T17:37:22.172Z,21.00
2018-09-01T17:39:50.640Z,21.10
2018-09-01T17:42:21.351Z,21.10
2018-09-01T17:44:50.034Z,21.10
2018-09-01T17:47:18.488Z,20.90
2018-09-01T17:49:46.958Z,20.80
2018-09-01T17:52:15.414Z,20.60
2018-09-01T17:54:44.203Z,20.70
2018-09-01T17:57:12.678Z,20.50
2018-09-01T17:59:41.136Z,20.40
2018-09-01T18:02:10.123Z,20.40
2018-09-01T18:04:38.650Z,20.30
2018-09-01T18:07:07.151Z,20.30
2018-09-01T18:09:35.595Z,20.20
2018-09-01T18:12:04.083Z,20.10
2018-09-01T18:14:32.608Z,20.00
2018-09-01T18:17:01.050Z,20.00
2018-09-01T18:19:29.506Z,19.90
2018-09-01T18:21:57.975Z,19.70
2018-09-01T18:24:26.432Z,19.70
2018-09-01T18:26:54.900Z,19.80
2018-09-01T18:29:23.399Z,19.80
2018-09-01T18:31:51.862Z,19.80
2018-09-01T18:34:20.568Z,19.60
2018-09-01T18:36:49.043Z,19.40
2018-09-01T18:39:17.622Z,19.40
2018-09-01T18:41:46.099Z,19.40
2018-09-01T18:44:14.602Z,19.30
2018-09-01T18:46:43.448Z,19.30
2018-09-01T18:49:11.938Z,19.20
2018-09-01T18:51:40.380Z,19.30
2018-09-01T18:54:09.021Z,19.20
2018-09-01T18:56:37.570Z,19.00
2018-09-01T18:59:06.466Z,19.00
2018-09-01T19:01:34.941Z,18.90
2018-09-01T19:04:03.421Z,18.90
2018-09-01T19:06:31.945Z,18.70
2018-09-01T19:09:00.415Z,18.70
2018-09-01T19:11:31.944Z,18.80
2018-09-01T19:14:00.689Z,18.80
2018-09-01T19:16:29.199Z,18.60
2018-09-01T19:18:57.662Z,18.50
2018-09-01T19:21:26.225Z,18.50
2018-09-01T19:23:54.690Z,18.40
2018-09-01T19:26:23.196Z,18.30
2018-09-01T19:28:51.633Z,18.50
2018-09-01T19:31:22.613Z,18.40
2018-09-01T19:33:51.238Z,18.20
2018-09-01T19:36:19.669Z,18.30
2018-09-01T19:38:48.102Z,18.30
2018-09-01T19:41:16.553Z,18.20
2018-09-01T19:43:44.996Z,18.00
2018-09-01T19:46:13.553Z,17.90
2018-09-01T19:48:41.963Z,17.80
2018-09-01T19:51:10.784Z,17.90
2018-09-01T19:53:39.170Z,18.00
2018-09-01T19:56:07.635Z,18.00
2018-09-01T19:58:36.050Z,17.80
2018-09-01T20:01:04.587Z,17.70
2018-09-01T20:03:33.027Z,17.70
2018-09-01T20:06:01.463Z,17.70
2018-09-01T20:08:29.902Z,17.60
2018-09-01T20:10:58.360Z,17.60
2018-09-01T20:13:26.815Z,17.70
2018-09-01T20:15:55.300Z,17.50
2018-09-01T20:18:23.743Z,17.40
2018-09-01T20:20:52.196Z,17.40
2018-09-01T20:23:20.670Z,17.40
2018-09-01T20:25:49.123Z,17.40
2018-09-01T20:28:17.815Z,17.30
2018-09-01T20:30:46.319Z,17.20
2018-09-01T20:33:14.751Z,17.10
2018-09-01T20:35:48.756Z,17.10
2018-09-01T20:38:17.380Z,17.00
2018-09-01T20:40:45.893Z,16.90
2018-09-01T20:43:14.308Z,16.80
2018-09-01T20:45:42.784Z,16.80
2018-09-01T20:48:11.364Z,16.70
2018-09-01T20:50:39.823Z,16.60
2018-09-01T20:53:08.480Z,16.60
2018-09-01T20:55:36.974Z,16.60
2018-09-01T20:58:05.476Z,16.40
2018-09-01T21:00:33.968Z,16.30
2018-09-01T21:03:02.393Z,16.30
2018-09-01T21:05:31.608Z,16.20
2018-09-01T21:08:00.401Z,16.20
2018-09-01T21:10:28.918Z,16.10
2018-09-01T21:12:57.371Z,16.20
2018-09-01T21:15:25.871Z,16.20
2018-09-01T21:17:54.299Z,16.20
2018-09-01T21:20:22.754Z,16.10
2018-09-01T21:22:51.213Z,16.10
2018-09-01T21:25:19.666Z,16.10
2018-09-01T21:27:48.108Z,16.00
2018-09-01T21:30:16.692Z,16.00
2018-09-01T21:32:45.136Z,16.00
2018-09-01T21:35:14.920Z,15.90
2018-09-01T21:37:43.481Z,15.80
2018-09-01T21:40:11.906Z,15.80
2018-09-01T21:42:40.375Z,15.80
2018-09-01T21:45:08.823Z,15.70
2018-09-01T21:47:37.283Z,15.70
2018-09-01T21:50:07.175Z,15.70
2018-09-01T21:52:35.728Z,15.90
2018-09-01T21:55:05.432Z,15.70
2018-09-01T21:57:33.940Z,15.60
2018-09-01T22:00:02.370Z,15.60
2018-09-01T22:02:30.822Z,15.60
2018-09-01T22:05:04.626Z,15.50
2018-09-01T22:07:33.081Z,15.40
2018-09-01T22:10:01.595Z,15.40
2018-09-01T22:12:29.971Z,15.30
2018-09-01T22:14:58.422Z,15.40
2018-09-01T22:17:26.944Z,15.40
2018-09-01T22:19:55.386Z,15.30
2018-09-01T22:22:23.846Z,15.20
2018-09-01T22:24:52.298Z,15.20
2018-09-01T22:27:20.771Z,15.20
2018-09-01T22:29:49.200Z,15.20
2018-09-01T22:32:17.684Z,15.10
2018-09-01T22:34:47.061Z,15.00
2018-09-01T22:37:15.533Z,15.10
2018-09-01T22:39:43.972Z,15.00
2018-09-01T22:42:12.446Z,15.00
2018-09-01T22:44:41.867Z,15.00
2018-09-01T22:47:13.807Z,15.00
2018-09-01T22:49:42.232Z,14.90
2018-09-01T22:52:10.683Z,14.90
2018-09-01T22:54:39.100Z,14.90
2018-09-01T22:57:07.547Z,15.00
2018-09-01T22:59:35.985Z,15.10
2018-09-01T23:02:05.530Z,15.00
2018-09-01T23:04:34.028Z,15.10
2018-09-01T23:07:02.494Z,15.00
2018-09-01T23:09:30.919Z,15.00
2018-09-01T23:11:59.369Z,15.10
2018-09-01T23:14:27.784Z,15.10
2018-09-01T23:16:56.233Z,15.10
2018-09-01T23:19:24.685Z,15.00
2018-09-01T23:21:53.143Z,14.90
2018-09-01T23:24:21.566Z,14.70
2018-09-01T23:26:50.137Z,14.70
2018-09-01T23:29:18.568Z,14.70
2018-09-01T23:31:47.015Z,14.70
2018-09-01T23:34:18.114Z,14.60
2018-09-01T23:36:46.675Z,14.60
2018-09-01T23:39:15.100Z,14.60
2018-09-01T23:41:43.596Z,14.40
2018-09-01T23:44:12.064Z,14.40
2018-09-01T23:46:40.607Z,14.40
2018-09-01T23:49:09.089Z,14.30
2018-09-01T23:51:37.529Z,14.20
2018-09-01T23:54:06.093Z,14.20
2018-09-01T23:56:34.615Z,14.20
2018-09-01T23:59:03.150Z,14.10
